• Join FlightAware (Why Join?)
  • Login
  • US Flag 
Gobble Gobble! 
05:23PM EST


 

Airport Tracker/Info


-or-


 

Live Flight TrackerFlight Track Log ✈ UAL4567 ✈ 01-May-2013 ✈ KEWR - KMCI

Flight Track Log - Related Links

Times and Time Zones

All times are in EDT time to prevent confusion due to time zone crossing. See the UAL4567 flight status page for this flight to view local times or setup timezone preferences in your user account.

Time Position Orientation Groundspeed Altitude Reporting Facility
EDT Latitude Longitude Course Direction KTS MPH feet Rate Location/Type
01:39PM 40.6333 -74.2000 246° West 214 246 1,900  Level New York TRACON
01:40PM 40.6500 -74.3000 282° West 257 296 3,500 1,920 Climbing New York TRACON
01:41PM 40.7391 -74.5792 277° West  Level FlightAware Approximate
01:41PM 40.6833 -74.3833 298° West 279 321 6,000  Level New York TRACON
01:42PM 40.7518 -74.7229 276° West  Level FlightAware Approximate
01:42PM 40.7000 -74.4833 282° West 294 338 9,000  Level New York TRACON
01:43PM 40.7629 -74.8670 276° West  Level FlightAware Approximate
01:43PM 40.7167 -74.6000 281° West 313 360 11,100  Level New York TRACON
01:44PM 40.7833 -75.0069 270° West  Level FlightAware Approximate
01:44PM 40.7264 -74.6706 280° West 353 406 11,900  Level New York Center
01:45PM 40.7964 -75.1441 246° West  Level FlightAware Approximate
01:45PM 40.7525 -74.8197 283° West 366 421 14,000  Level New York Center
01:46PM 40.7733 -74.9417 283° West 371 427 15,900 1,080 Climbing New York Center
01:47PM 40.7975 -75.0803 283° West 387 445 16,200 840 Climbing New York Center
01:48PM 40.7864 -75.2164 264° West 403 464 17,600 1,320 Climbing New York Center
01:49PM 40.7431 -75.3669 249° West 403 464 18,900 1,440 Climbing New York Center
01:50PM 40.7000 -75.5067 248° West 403 464 20,500 1,500 Climbing New York Center
01:51PM 40.6589 -75.6458 249° West 410 472 22,000 1,380 Climbing New York Center
01:52PM 40.6156 -75.7822 247° West 415 478 23,300 1,080 Climbing New York Center
01:53PM 40.5756 -75.8942 245° Southwest 415 478 24,200 900 Climbing New York Center
01:54PM 40.5122 -76.0533 242° Southwest 433 498 25,100 900 Climbing New York Center
01:55PM 40.4558 -76.1936 242° Southwest 439 505 26,100 1,080 Climbing New York Center
01:56PM 40.4033 -76.3367 244° Southwest 439 505 27,300 900 Climbing New York Center
01:57PM 40.3550 -76.4772 246° West 439 505 27,900 960 Climbing New York Center
01:58PM 40.3328 -76.6306 259° West 433 498 29,200 1,200 Climbing New York Center
01:59PM 40.3189 -76.7844 263° West 428 493 30,400 1,260 Climbing New York Center
02:00PM 40.3008 -76.9328 261° West 428 493 31,800 1,380 Climbing New York Center
02:01PM 40.2844 -77.0836 262° West 423 487 33,200 1,140 Climbing New York Center
02:02PM 40.2681 -77.2344 262° West 423 487 34,200 900 Climbing New York Center
02:03PM 40.2533 -77.3856 263° West 423 487 35,100 660 Climbing New York Center
02:05PM 40.2253 -77.6433 262° West 417 480 36,000 300 Climbing Cleveland Center
02:06PM 40.2061 -77.8019 261° West 430 495 36,000  Level Cleveland Center
02:07PM 40.1814 -77.9906 260° West 468 539 36,000  Level Cleveland Center
02:08PM 40.1811 -78.1592 270° West 474 545 36,000  Level Cleveland Center
02:09PM 40.1844 -78.3247 272° West 469 540 36,000  Level Cleveland Center
02:10PM 40.1875 -78.4903 271° West 459 528 36,000  Level Cleveland Center
02:11PM 40.1883 -78.6533 270° West 459 528 36,000  Level Cleveland Center
02:12PM 40.1911 -78.8164 271° West 459 528 36,000  Level Cleveland Center
02:13PM 40.1936 -78.9822 271° West 459 528 36,000  Level Cleveland Center
02:14PM 40.1956 -79.1425 271° West 459 528 36,000  Level Cleveland Center
02:15PM 40.1975 -79.3083 271° West 459 528 36,000  Level Cleveland Center
02:16PM 40.2033 -79.4550 273° West 452 520 36,000  Level Cleveland Center
02:17PM 40.2050 -79.6208 271° West 458 527 36,000  Level Cleveland Center
02:18PM 40.2039 -79.7811 270° West 458 527 36,000  Level Cleveland Center
02:19PM 40.2050 -79.9469 271° West 458 527 36,000  Level Cleveland Center
02:20PM 40.2039 -80.1292 270° West 458 527 36,000  Level Cleveland Center
02:21PM 40.2044 -80.2922 270° West 458 527 36,000  Level Cleveland Center
02:22PM 40.2067 -80.4553 271° West 458 527 36,000  Level Cleveland Center
02:23PM 40.2069 -80.6211 270° West 458 527 36,000  Level Cleveland Center
02:24PM 40.2067 -80.7869 270° West 458 527 36,000  Level Cleveland Center
02:25PM 40.2061 -80.9500 270° West 458 527 36,000  Level Cleveland Center
02:26PM 40.2028 -81.2131 269° West 453 521 36,000  Level Indianapolis Center
02:27PM 40.2019 -81.3825 270° West 461 531 36,000  Level Indianapolis Center
02:28PM 40.1994 -81.5517 269° West 460 529 36,000  Level Indianapolis Center
02:29PM 40.1981 -81.7208 269° West 461 531 36,000  Level Indianapolis Center
02:30PM 40.1961 -81.9036 269° West 459 528 36,000  Level Indianapolis Center
02:31PM 40.1939 -82.0706 269° West 456 525 36,000  Level Indianapolis Center
02:32PM 40.1919 -82.2383 269° West 458 527 36,000  Level Indianapolis Center
02:34PM 40.1894 -82.4053 269° West 457 526 36,000  Level Indianapolis Center
02:35PM 40.1867 -82.5719 269° West 454 522 36,000  Level Indianapolis Center
02:36PM 40.1839 -82.7386 269° West 455 524 36,000  Level Indianapolis Center
02:37PM 40.1800 -82.9358 269° West 462 532 36,000  Level Indianapolis Center
02:38PM 40.1756 -83.1031 268° West 460 529 36,000  Level Indianapolis Center
02:39PM 40.1717 -83.2697 268° West 458 527 36,000  Level Indianapolis Center
02:40PM 40.1686 -83.4358 269° West 459 528 36,000  Level Indianapolis Center
02:41PM 40.1633 -83.6000 268° West 454 522 36,000  Level Indianapolis Center
02:42PM 40.1589 -83.7850 268° West 438 504 36,000  Level Indianapolis Center
02:43PM 40.1536 -83.9422 268° West 433 498 36,000  Level Indianapolis Center
02:44PM 40.1486 -84.1014 268° West 436 502 36,000  Level Indianapolis Center
02:45PM 40.1444 -84.2633 268° West 441 507 36,000  Level Indianapolis Center
02:46PM 40.1381 -84.4269 267° West 447 514 36,000  Level Indianapolis Center
02:47PM 40.1322 -84.5917 267° West 451 519 36,000  Level Indianapolis Center
02:48PM 40.1264 -84.7567 267° West 452 520 36,000  Level Indianapolis Center
02:49PM 40.1200 -84.9286 267° West 450 518 36,000  Level Indianapolis Center
02:50PM 40.1131 -85.0906 267° West 445 512 36,000  Level Indianapolis Center
02:51PM 40.1064 -85.2794 267° West 445 512 36,000  Level Indianapolis Center
02:52PM 40.1025 -85.3597 266° West 443 510 36,000  Level Indianapolis Center
02:53PM 40.0939 -85.5464 267° West 441 507 36,000  Level Indianapolis Center
02:54PM 40.0881 -85.7061 267° West 439 505 36,000  Level Indianapolis Center
02:55PM 40.0797 -85.8647 266° West 438 504 36,000  Level Indianapolis Center
02:56PM 40.0728 -86.0225 267° West 435 501 36,000  Level Indianapolis Center
02:57PM 40.0683 -86.1269 267° West 437 503 36,000  Level Chicago Center
02:58PM 40.0600 -86.2833 266° West 436 502 36,000  Level Chicago Center
02:59PM 40.0525 -86.4411 266° West 437 503 36,000  Level Chicago Center
02:59PM 40.0483 -86.5203 266° West 436 502 36,000  Level Indianapolis Center
03:00PM 40.0392 -86.6778 266° West 436 502 36,000  Level Indianapolis Center
03:01PM 40.0314 -86.8372 266° West 439 505 36,000  Level Indianapolis Center
03:02PM 40.0217 -86.9967 265° West 440 506 36,000  Level Indianapolis Center
03:03PM 40.0133 -87.1553 266° West 438 504 36,000  Level Indianapolis Center
03:04PM 40.0017 -87.3425 265° West 443 510 36,000  Level Indianapolis Center
03:05PM 39.9922 -87.5036 266° West 444 511 36,000  Level Indianapolis Center
03:06PM 39.9831 -87.6631 266° West 440 506 36,000  Level Indianapolis Center
03:07PM 39.9722 -87.8236 265° West 441 507 36,000  Level Indianapolis Center
03:08PM 39.9619 -87.9842 265° West 443 510 36,000  Level Indianapolis Center
03:09PM 39.9558 -88.0922 266° West 445 512 36,000  Level Chicago Center
03:10PM 39.9464 -88.2436 265° West 443 510 36,000  Level Chicago Center
03:11PM 39.9325 -88.4372 265° West 446 513 36,000  Level Chicago Center
03:11PM 39.9281 -88.5017 265° West 445 512 36,000  Level Kansas City Center
03:12PM 39.9161 -88.6653 265° West 450 518 36,000  Level Kansas City Center
03:13PM 39.9042 -88.8281 265° West 450 518 36,000  Level Kansas City Center
03:14PM 39.8928 -88.9908 265° West 450 518 36,000  Level Kansas City Center
03:16PM 39.8800 -89.1533 264° West 450 518 36,000  Level Kansas City Center
03:17PM 39.8675 -89.3169 264° West 451 519 36,000  Level Kansas City Center
03:18PM 39.8558 -89.4789 265° West 451 519 36,000  Level Kansas City Center
03:19PM 39.8403 -89.6758 264° West 453 521 36,000  Level Kansas City Center
03:20PM 39.8403 -89.8414 270° West 454 522 36,000  Level Kansas City Center
03:21PM 39.8431 -90.0058 271° West 453 521 36,000  Level Kansas City Center
03:22PM 39.8450 -90.1708 271° West 455 524 36,000  Level Kansas City Center
03:23PM 39.8461 -90.3367 271° West 457 526 36,000  Level Kansas City Center
03:24PM 39.8475 -90.5017 271° West 455 524 36,000  Level Kansas City Center
03:25PM 39.8469 -90.6664 270° West 455 524 36,000  Level Kansas City Center
03:26PM 39.8478 -90.8622 270° West 451 519 36,000  Level Kansas City Center
03:27PM 39.8486 -91.0053 270° West 449 517 36,000  Level Kansas City Center
03:28PM 39.8483 -91.1686 270° West 452 520 36,000  Level Kansas City Center
03:29PM 39.8431 -91.3622 268° West 450 518 36,000  Level Kansas City Center
03:30PM 39.8306 -91.5222 264° West 448 516 36,000  Level Kansas City Center
03:31PM 39.8186 -91.6842 265° West 451 519 36,000  Level Kansas City Center
03:32PM 39.8056 -91.8436 264° West 448 516 36,000  Level Kansas City Center
03:33PM 39.7933 -92.0061 264° West 451 519 36,000  Level Kansas City Center
03:34PM 39.7783 -92.1997 264° West 450 518 36,000  Level Kansas City Center
03:35PM 39.7656 -92.3639 264° West 453 521 36,000  Level Kansas City Center
03:36PM 39.7511 -92.5272 263° West 455 524 36,000 -420 Level Kansas City Center
03:37PM 39.7372 -92.6883 264° West 453 521 35,200 -1,380 Descending Kansas City Center
03:38PM 39.7239 -92.8475 264° West 450 518 33,200 -2,100 Descending Kansas City Center
03:39PM 39.7111 -92.9986 264° West 439 505 30,900 -2,520 Descending Kansas City Center
03:40PM 39.6944 -93.1883 264° West 442 509 28,000 -2,520 Descending Kansas City Center
03:41PM 39.6800 -93.3500 263° West 451 519 25,700 -2,280 Descending Kansas City Center
03:42PM 39.6653 -93.5089 263° West 449 517 23,300 -2,280 Descending Kansas City Center
03:43PM 39.6506 -93.6608 263° West 433 498 21,000 -2,460 Descending Kansas City Center
03:44PM 39.6367 -93.8278 264° West 406 467 18,300 -2,400 Descending Kansas City Center
03:46PM 39.5972 -93.9439 246° West 368 423 16,100 -2,400 Descending Kansas City Center
03:47PM 39.5356 -94.0653 237° Southwest 360 414 13,400 -2,040 Descending Kansas City Center
03:48PM 39.4842 -94.1664 237° Southwest 351 404 12,000 -780 Descending Kansas City Center
03:49PM 39.4319 -94.2692 237° Southwest 356 410 11,900 -420 Descending Kansas City Center
03:50PM 39.3747 -94.3811 237° Southwest 334 384 11,200 -480 Descending Kansas City Center
03:51PM 39.3278 -94.4733 237° Southwest 324 373 11,000 -480 Descending Kansas City Center
03:52PM 39.2817 -94.5631 236° Southwest 262 302 10,300 -1,020 Descending Kansas City Center
03:53PM 39.2339 -94.6075 216° Southwest 232 267 9,000 -1,560 Descending Kansas City Center
03:54PM 39.1661 -94.6331 196° South 226 260 7,100 -1,740 Descending Kansas City Center
03:55PM 39.1222 -94.6761 217° Southwest 230 265 5,500 -1,800 Descending Kansas City Center
03:56PM 39.1417 -94.7683 285° West 244 281 3,500 -1,260 Descending Kansas City Center
03:57PM 39.1967 -94.7575 North 210 242 3,000 -780 Descending Kansas City Center
03:58PM 39.2486 -94.7436 12° North 169 194 2,000 -1,020 Descending Kansas City Center